Otter, MT

1:14 PM MDT on September 21, 2014 (GMT -0600)
RAWS FORT HOWES MT US | Change Station
CLOSE
Current Station
Personal Weather Station
Location: Otter, MT
Elevation: 3443 ft
Nearby Weather Stations

Elev 3443 ft 45.30 °N, 106.16 °W | Updated 47 minutes ago

Clear
Clear
75 °F
Feels Like 77 °F
N
11
Wind Variable Wind from SE
Gusts 16.0 mph

Today
High -- | Low -- °F
--% Chance of Precip.
Yesterday
High -- | Low -- °F
Precip. -- in
6:49 AM 7:02 PM
Waning Crescent, 6% visible
Pressure 30.19 in
Visibility 10.0 miles
Clouds Clear
Heat Index 77 °F
Dew Point 39 °F
Humidity 27%
Rainfall 0.00 in
Snow Depth 0 in , 0 in , 0 in
UV 7 out of 12
Pollen 5.00 out of 12
Air Quality Not available.
Flu Activity Not available.
METAR KSHR 211853Z AUTO 15015G18KT 10SM CLR 24/04 A3025 RMK AO2 SLP222 T02440044

More Conditions Fewer Conditions

Pressure 30.19 in
Visibility 10.0 miles
Clouds Clear
Heat Index 77 °F
Dew Point 39 °F
Humidity 27%
Rainfall 0.00 in
Snow Depth 0 in , 0 in , 0 in
UV 7 out of 12
Pollen 5.00 out of 12
Air Quality Not available.
Flu Activity Not available.
METAR KSHR 211853Z AUTO 15015G18KT 10SM CLR 24/04 A3025 RMK AO2 SLP222 T02440044

More Conditions Fewer Conditions

10-Day Weather Forecast

Almanac

Astronomy

Sep. 21, 2014 Rise Set
Actual Time 6:49 AM MDT 7:02 PM MDT
Civil Twilight 6:19 AM MDT 7:32 PM MDT
Nautical Twilight 5:44 AM MDT 8:06 PM MDT
Astronomical Twilight 5:09 AM MDT 8:42 PM MDT
Moon 4:19 AM MDT 5:44 PM MDT
Length of Visible Light 13h 12m
Length of Day
12h 13m
Tomorrow will be 3m 8s shorter.
Waning Crescent, 6% of the Moon is Illuminated
Today
Waning Crescent
Sep 24
New
Oct 1
First Quarter
Oct 8
Full
Oct 15
Last Quarter

Today's Extremes

State Highs State Lows

Community

WunderPhotos

Upload Photos

1,755,226 photos uploaded!

Nearby

Snow Depth

Station Depth Elevation
Northeast Entrance 0 in 7350 ft
Shower Falls 0 in 8100 ft
Stahl Peak 0 in 6030 ft
Twelvemile Creek 0 in 5600 ft
Crystal Lake 1 in 6050 ft

Earthquake Activity

City Distance Mag. Time & Date
No recent earthquake activity has been reported nearby.
Minimum magnitude displayed is 2.5.

Coastal Water Temperatures

Place Temperature
No Stations Reporting

Nearby Weather Stations